createdAt,value
2018-07-12T00:03:42.677Z,18.70
2018-07-12T00:08:44.964Z,18.70
2018-07-12T00:13:47.227Z,18.50
2018-07-12T00:23:51.997Z,18.70
2018-07-12T00:28:54.237Z,18.50
2018-07-12T00:33:56.782Z,18.70
2018-07-12T00:38:59.082Z,18.60
2018-07-12T00:44:01.302Z,18.70
2018-07-12T00:49:03.521Z,18.60
2018-07-12T00:54:05.771Z,18.60
2018-07-12T00:59:08.008Z,18.60
2018-07-12T01:04:10.218Z,18.60
2018-07-12T01:09:12.455Z,18.50
2018-07-12T01:14:14.708Z,18.60
2018-07-12T01:19:16.920Z,18.50
2018-07-12T01:24:19.158Z,18.50
2018-07-12T01:29:21.383Z,18.40
2018-07-12T01:34:23.590Z,18.40
2018-07-12T01:39:26.006Z,18.20
2018-07-12T01:44:28.222Z,18.30
2018-07-12T01:49:30.459Z,18.30
2018-07-12T01:54:32.708Z,18.30
2018-07-12T01:59:34.918Z,18.50
2018-07-12T02:04:37.134Z,18.30
2018-07-12T02:09:39.435Z,18.30
2018-07-12T02:14:41.648Z,18.20
2018-07-12T02:19:43.883Z,18.10
2018-07-12T02:24:46.116Z,18.20
2018-07-12T02:29:48.337Z,18.10
2018-07-12T02:34:50.596Z,18.00
2018-07-12T02:39:52.815Z,18.10
2018-07-12T02:44:55.091Z,18.10
2018-07-12T02:49:57.314Z,18.10
2018-07-12T02:55:00.284Z,18.20
2018-07-12T03:00:02.598Z,18.10
2018-07-12T03:05:04.855Z,18.00
2018-07-12T03:10:07.071Z,17.90
2018-07-12T03:15:09.343Z,17.90
2018-07-12T03:20:11.559Z,18.00
2018-07-12T03:25:13.799Z,18.10
2018-07-12T03:30:16.024Z,18.10
2018-07-12T03:35:18.278Z,18.00
2018-07-12T03:40:20.547Z,17.90
2018-07-12T03:45:23.020Z,17.90
2018-07-12T03:50:25.237Z,17.90
2018-07-12T03:55:27.487Z,17.90
2018-07-12T04:00:29.770Z,17.90
2018-07-12T04:05:31.986Z,17.80
2018-07-12T04:10:34.224Z,17.70
2018-07-12T04:15:36.463Z,17.70
2018-07-12T04:20:38.718Z,17.70
2018-07-12T04:25:40.947Z,17.70
2018-07-12T04:30:43.174Z,17.60
2018-07-12T04:35:45.411Z,17.70
2018-07-12T04:40:47.674Z,17.60
2018-07-12T04:45:49.925Z,17.60
2018-07-12T04:50:52.147Z,17.70
2018-07-12T04:55:54.587Z,17.60
2018-07-12T05:00:56.814Z,17.50
2018-07-12T05:05:59.033Z,17.50
2018-07-12T05:11:01.260Z,17.30
2018-07-12T05:16:03.519Z,17.10
2018-07-12T05:21:05.717Z,17.30
2018-07-12T05:26:07.943Z,17.30
2018-07-12T05:31:10.154Z,17.40
2018-07-12T05:36:21.914Z,17.70
2018-07-12T05:51:31.278Z,18.10
2018-07-12T05:56:34.826Z,18.00
2018-07-12T06:01:49.535Z,17.70
2018-07-12T06:06:53.096Z,17.80
2018-07-12T06:11:56.410Z,17.70
2018-07-12T06:16:59.699Z,17.70
2018-07-12T06:22:02.974Z,17.90
2018-07-12T06:27:06.351Z,17.90
2018-07-12T06:32:09.676Z,18.00
2018-07-12T06:37:13.175Z,18.20
2018-07-12T06:42:16.585Z,18.50
2018-07-12T06:47:19.906Z,18.50
2018-07-12T06:52:23.197Z,18.60
2018-07-12T06:57:26.493Z,18.60
2018-07-12T07:02:37.804Z,18.70
2018-07-12T07:07:41.059Z,18.70
2018-07-12T07:12:44.463Z,18.60
2018-07-12T07:17:47.738Z,18.80
2018-07-12T07:22:51.462Z,18.90
2018-07-12T07:27:54.851Z,18.90
2018-07-12T07:32:58.108Z,18.90
2018-07-12T07:38:01.475Z,19.10
2018-07-12T07:43:05.179Z,19.20
2018-07-12T07:48:08.558Z,19.00
2018-07-12T07:53:11.856Z,19.10
2018-07-12T07:58:15.171Z,19.20
2018-07-12T08:03:18.500Z,19.20
2018-07-12T08:08:21.773Z,19.60
2018-07-12T08:13:25.037Z,19.70
2018-07-12T08:18:28.296Z,19.90
2018-07-12T08:23:31.571Z,19.60
2018-07-12T08:28:34.814Z,19.90
2018-07-12T08:33:44.722Z,20.10
2018-07-12T08:38:47.983Z,20.20
2018-07-12T08:43:51.291Z,20.10
2018-07-12T08:48:54.536Z,20.40
2018-07-12T08:53:57.775Z,21.00
2018-07-12T08:59:01.151Z,20.90
2018-07-12T09:04:04.444Z,21.20
2018-07-12T09:09:08.295Z,21.10
2018-07-12T09:14:11.611Z,21.30
2018-07-12T09:19:14.879Z,21.30
2018-07-12T09:24:18.135Z,21.40
2018-07-12T09:29:21.433Z,20.80
2018-07-12T09:34:24.736Z,21.30
2018-07-12T09:39:28.019Z,21.50
2018-07-12T09:44:31.446Z,21.50
2018-07-12T09:49:34.876Z,21.20
2018-07-12T09:54:38.227Z,21.20
2018-07-12T09:59:41.612Z,22.20
2018-07-12T10:04:44.899Z,22.60
2018-07-12T10:15:05.644Z,22.00
2018-07-12T10:20:08.870Z,22.00
2018-07-12T10:25:12.323Z,21.90
2018-07-12T10:30:15.597Z,23.20
2018-07-12T10:35:18.951Z,22.50
2018-07-12T10:40:22.195Z,23.20
2018-07-12T10:45:25.466Z,23.00
2018-07-12T10:50:28.730Z,22.10
2018-07-12T10:55:32.096Z,22.20
2018-07-12T11:00:35.566Z,22.70
2018-07-12T11:05:38.830Z,23.50
2018-07-12T11:10:42.226Z,23.20
2018-07-12T11:15:46.456Z,25.40
2018-07-12T11:25:52.795Z,23.90
2018-07-12T11:30:56.100Z,25.40
2018-07-12T11:35:59.420Z,23.90
2018-07-12T11:41:03.300Z,24.50
2018-07-12T11:46:07.836Z,25.80
2018-07-12T11:51:11.267Z,25.50
2018-07-12T11:56:14.648Z,24.10
2018-07-12T12:01:18.155Z,24.20
2018-07-12T12:06:21.395Z,24.80
2018-07-12T12:11:24.758Z,25.20
2018-07-12T12:16:28.046Z,25.20
2018-07-12T12:21:31.460Z,24.30
2018-07-12T12:26:34.764Z,23.90
2018-07-12T12:31:38.039Z,24.70
2018-07-12T12:36:41.275Z,25.40
2018-07-12T12:41:44.686Z,25.70
2018-07-12T12:46:47.942Z,24.30
2018-07-12T12:51:51.261Z,24.50
2018-07-12T12:56:54.511Z,24.60
2018-07-12T13:01:57.881Z,25.00
2018-07-12T13:07:01.244Z,25.80
2018-07-12T13:12:04.631Z,24.60
2018-07-12T13:17:07.998Z,24.30
2018-07-12T13:22:11.637Z,24.40
2018-07-12T13:27:14.941Z,24.50
2018-07-12T13:32:18.204Z,25.00
2018-07-12T13:37:21.664Z,25.50
2018-07-12T13:42:24.919Z,24.80
2018-07-12T13:47:28.207Z,24.70
2018-07-12T13:52:31.467Z,24.50
2018-07-12T13:57:34.815Z,24.50
2018-07-12T14:02:38.273Z,24.60
2018-07-12T14:07:41.651Z,24.50
2018-07-12T14:12:44.996Z,24.50
2018-07-12T14:17:48.258Z,25.00
2018-07-12T14:22:51.617Z,25.20
2018-07-12T14:27:54.965Z,24.70
2018-07-12T14:32:58.299Z,24.70
2018-07-12T14:38:01.551Z,24.90
2018-07-12T14:43:04.855Z,24.60
2018-07-12T14:48:08.168Z,24.50
2018-07-12T14:53:11.578Z,24.70
2018-07-12T14:58:14.847Z,24.70
2018-07-12T15:03:18.150Z,24.90
2018-07-12T15:08:21.430Z,24.80
2018-07-12T15:13:24.690Z,24.70
2018-07-12T15:18:28.099Z,25.00
2018-07-12T15:23:31.402Z,24.90
2018-07-12T15:28:34.843Z,24.80
2018-07-12T15:33:38.201Z,25.10
2018-07-12T15:38:41.478Z,25.50
2018-07-12T15:43:44.806Z,25.20
2018-07-12T15:48:48.087Z,25.20
2018-07-12T15:53:51.355Z,25.20
2018-07-12T15:58:54.619Z,25.40
2018-07-12T16:03:57.963Z,25.20
2018-07-12T16:09:01.218Z,24.90
2018-07-12T16:14:04.542Z,24.80
2018-07-12T16:19:07.850Z,24.90
2018-07-12T16:24:11.211Z,25.00
2018-07-12T16:29:14.462Z,25.50
2018-07-12T16:34:18.067Z,25.30
2018-07-12T16:44:24.432Z,25.90
2018-07-12T16:49:27.764Z,25.80
2018-07-12T16:54:32.245Z,25.40
2018-07-12T16:59:35.495Z,25.50
2018-07-12T17:04:38.828Z,25.40
2018-07-12T17:09:42.192Z,25.40
2018-07-12T17:14:45.565Z,25.40
2018-07-12T17:19:48.813Z,24.90
2018-07-12T17:24:52.231Z,24.90
2018-07-12T17:29:55.648Z,24.90
2018-07-12T17:34:58.914Z,24.80
2018-07-12T17:40:02.263Z,24.80
2018-07-12T17:45:05.574Z,25.00
2018-07-12T17:50:08.840Z,24.90
2018-07-12T17:55:12.094Z,24.90
2018-07-12T18:00:15.437Z,25.20
2018-07-12T18:05:18.860Z,25.20
2018-07-12T18:10:22.042Z,25.10
2018-07-12T18:15:25.320Z,24.80
2018-07-12T18:20:28.687Z,24.60
2018-07-12T18:25:32.040Z,24.50
2018-07-12T18:30:35.342Z,24.40
2018-07-12T18:35:38.781Z,24.30
2018-07-12T18:40:42.204Z,24.20
2018-07-12T18:45:45.857Z,24.10
2018-07-12T18:50:49.158Z,24.20
2018-07-12T18:55:52.421Z,24.10
2018-07-12T19:00:55.773Z,24.00
2018-07-12T19:05:59.387Z,24.00
2018-07-12T19:11:02.718Z,23.80
2018-07-12T19:16:06.057Z,23.70
2018-07-12T19:21:09.371Z,23.70
2018-07-12T19:26:12.671Z,23.60
2018-07-12T19:31:16.236Z,23.50
2018-07-12T19:36:19.502Z,23.20
2018-07-12T19:41:22.769Z,23.10
2018-07-12T19:46:26.127Z,23.00
2018-07-12T19:51:29.441Z,22.80
2018-07-12T19:56:32.743Z,22.80
2018-07-12T20:01:36.105Z,22.80
2018-07-12T20:06:40.257Z,22.50
2018-07-12T20:11:43.655Z,22.50
2018-07-12T20:16:46.949Z,22.20
2018-07-12T20:21:50.250Z,22.20
2018-07-12T20:31:57.114Z,22.10
2018-07-12T20:42:03.725Z,21.90
2018-07-12T20:47:07.128Z,21.90
2018-07-12T20:52:10.423Z,21.90
2018-07-12T20:57:13.797Z,22.20
2018-07-12T21:02:17.198Z,22.20
2018-07-12T21:07:21.412Z,22.30
2018-07-12T21:12:24.603Z,22.30
2018-07-12T21:17:27.860Z,22.20
2018-07-12T21:22:31.116Z,21.80
2018-07-12T21:27:34.357Z,21.90
2018-07-12T21:32:37.771Z,22.00
2018-07-12T21:37:41.054Z,21.70
2018-07-12T21:42:44.322Z,21.80
2018-07-12T21:47:47.562Z,21.70
2018-07-12T21:52:50.858Z,21.60
2018-07-12T21:57:54.144Z,21.70
2018-07-12T22:02:57.553Z,21.70
2018-07-12T22:08:28.348Z,21.40
2018-07-12T22:13:32.632Z,21.40
2018-07-12T22:18:35.923Z,21.40
2018-07-12T22:23:39.182Z,21.40
2018-07-12T22:28:42.413Z,21.20
2018-07-12T22:33:45.667Z,21.10
2018-07-12T22:38:48.944Z,21.00
2018-07-12T22:43:52.215Z,21.00
2018-07-12T22:48:55.643Z,21.10
2018-07-12T22:53:58.853Z,20.80
2018-07-12T23:04:05.227Z,20.70
2018-07-12T23:09:08.695Z,20.60
2018-07-12T23:14:12.032Z,20.50
2018-07-12T23:19:15.319Z,20.30
2018-07-12T23:24:18.707Z,20.30
2018-07-12T23:29:21.978Z,20.30
2018-07-12T23:34:25.302Z,20.20
2018-07-12T23:39:28.586Z,20.10
2018-07-12T23:44:31.842Z,20.20
2018-07-12T23:49:35.123Z,20.00
2018-07-12T23:54:38.427Z,19.80
2018-07-12T23:59:41.777Z,19.80
